Time;durP1;ratioP1;P1;durP2;ratioP2;P2;SDS_P1;SDS_P2;PMS_P1;PMS_P2;Temp;Humidity;BMP_temperature;BMP_pressure;BME280_temperature;BME280_humidity;BME280_pressure;Samples;Min_cycle;Max_cycle;Signal;HPM_P1;HPM_P2
2023/07/16 00:01:47;;;;;;;;;;;26.30;93.50;;;;;;5115491;28;19984;-62
2023/07/16 00:04:12;;;;;;;;;;;26.20;93.00;;;;;;5115470;28;19985;-65
2023/07/16 00:06:38;;;;;;;;;;;26.20;93.00;;;;;;5115321;28;20035;-64
2023/07/16 00:09:03;;;;;;;;;;;26.20;93.60;;;;;;5115141;28;20429;-64
2023/07/16 00:11:29;;;;;;;;;;;26.10;94.10;;;;;;5115295;28;20343;-65
2023/07/16 00:13:55;;;;;;;;;;;26.00;94.30;;;;;;5115249;28;20462;-64
2023/07/16 00:16:21;;;;;;;;;;;26.00;94.50;;;;;;5114848;28;19989;-64
2023/07/16 00:18:47;;;;;;;;;;;26.00;94.50;;;;;;5115473;28;19993;-65
2023/07/16 00:21:12;;;;;;;;;;;26.00;94.60;;;;;;5115065;28;19985;-62
2023/07/16 00:23:38;;;;;;;;;;;26.00;94.80;;;;;;5114883;28;20028;-64
2023/07/16 00:26:03;;;;;;;;;;;26.00;94.90;;;;;;5115074;28;19992;-65
2023/07/16 00:28:29;;;;;;;;;;;26.00;95.00;;;;;;5114834;28;20012;-64
2023/07/16 00:30:55;;;;;;;;;;;25.90;95.10;;;;;;5115013;28;20506;-62
2023/07/16 00:33:20;;;;;;;;;;;25.90;95.00;;;;;;5115206;28;19989;-65
2023/07/16 00:35:49;;;;;;;;;;;25.90;95.20;;;;;;5114742;28;19989;-63
2023/07/16 00:38:16;;;;;;;;;;;25.80;95.30;;;;;;5114618;28;19992;-65
2023/07/16 00:40:42;;;;;;;;;;;25.80;95.30;;;;;;5114825;28;20032;-63
2023/07/16 00:43:07;;;;;;;;;;;25.80;95.20;;;;;;5114683;28;20418;-63
2023/07/16 00:45:33;;;;;;;;;;;25.80;95.20;;;;;;5115170;28;20029;-64
2023/07/16 00:47:59;;;;;;;;;;;25.80;95.20;;;;;;5114476;28;20024;-65
2023/07/16 00:50:24;;;;;;;;;;;25.80;95.60;;;;;;5114487;28;20438;-65
2023/07/16 00:52:50;;;;;;;;;;;25.80;95.70;;;;;;5114509;28;19985;-64
2023/07/16 00:55:16;;;;;;;;;;;25.80;95.30;;;;;;5114679;28;20030;-65
2023/07/16 00:57:41;;;;;;;;;;;25.80;94.90;;;;;;5114486;28;20000;-63
2023/07/16 01:00:07;;;;;;;;;;;25.80;94.60;;;;;;5114629;28;20038;-63
2023/07/16 01:02:33;;;;;;;;;;;25.80;94.30;;;;;;5114467;28;19984;-63
2023/07/16 01:04:59;;;;;;;;;;;25.70;94.50;;;;;;5114443;28;19991;-64
2023/07/16 01:07:26;;;;;;;;;;;25.70;94.50;;;;;;5095904;28;20044;-62
2023/07/16 01:09:53;;;;;;;;;;;25.60;94.30;;;;;;5114439;28;20093;-62
2023/07/16 01:12:20;;;;;;;;;;;25.60;94.60;;;;;;5114406;28;20026;-65
2023/07/16 01:14:46;;;;;;;;;;;25.60;94.50;;;;;;5114284;28;19985;-62
2023/07/16 01:17:12;;;;;;;;;;;25.60;94.70;;;;;;5114152;28;19999;-63
2023/07/16 01:19:37;;;;;;;;;;;25.50;95.00;;;;;;5114024;28;19989;-64
2023/07/16 01:22:09;;;;;;;;;;;25.50;94.90;;;;;;5114187;28;19988;-64
2023/07/16 01:24:52;;;;;;;;;;;25.60;94.90;;;;;;5114153;28;20434;-65
2023/07/16 01:27:37;;;;;;;;;;;25.50;95.10;;;;;;5114122;28;19995;-63
2023/07/16 01:30:03;;;;;;;;;;;25.50;95.00;;;;;;5113464;28;20102;-63
2023/07/16 01:32:32;;;;;;;;;;;25.50;95.10;;;;;;5114083;28;19995;-63
2023/07/16 01:34:58;;;;;;;;;;;25.50;95.10;;;;;;5113794;28;20462;-65
2023/07/16 01:37:24;;;;;;;;;;;25.50;95.10;;;;;;5114017;28;20096;-64
2023/07/16 01:39:49;;;;;;;;;;;25.50;95.40;;;;;;5114016;28;20074;-62
2023/07/16 01:42:15;;;;;;;;;;;25.40;95.60;;;;;;5113831;28;20034;-64
2023/07/16 01:44:41;;;;;;;;;;;25.40;95.70;;;;;;5114092;28;19985;-65
2023/07/16 01:47:35;;;;;;;;;;;25.40;95.70;;;;;;5113843;28;19992;-63
2023/07/16 01:50:03;;;;;;;;;;;25.30;96.20;;;;;;5023645;28;20025;-64
2023/07/16 01:52:28;;;;;;;;;;;25.30;96.40;;;;;;5113991;28;19989;-63
2023/07/16 01:54:54;;;;;;;;;;;25.20;96.70;;;;;;5113862;28;19985;-63
2023/07/16 01:57:19;;;;;;;;;;;25.20;97.10;;;;;;5095465;28;20099;-63
2023/07/16 01:59:46;;;;;;;;;;;25.20;97.20;;;;;;5114146;28;19988;-63
2023/07/16 02:02:11;;;;;;;;;;;25.20;97.80;;;;;;5113778;28;19984;-64
2023/07/16 02:04:37;;;;;;;;;;;25.10;98.10;;;;;;5113681;28;19996;-64
2023/07/16 02:07:02;;;;;;;;;;;25.10;97.50;;;;;;5114000;28;19989;-63
2023/07/16 02:09:28;;;;;;;;;;;25.10;97.10;;;;;;5113711;28;20109;-63
2023/07/16 02:11:54;;;;;;;;;;;25.00;97.40;;;;;;5114267;28;19985;-63
2023/07/16 02:14:20;;;;;;;;;;;25.00;97.40;;;;;;5113839;28;20453;-65
2023/07/16 02:16:45;;;;;;;;;;;25.00;97.50;;;;;;5113763;28;19985;-65
2023/07/16 02:19:11;;;;;;;;;;;25.00;97.60;;;;;;5113367;28;20076;-64
2023/07/16 02:21:36;;;;;;;;;;;25.00;97.70;;;;;;5113768;28;19988;-65
2023/07/16 02:24:02;;;;;;;;;;;25.00;97.70;;;;;;5113885;28;20374;-63
2023/07/16 02:26:28;;;;;;;;;;;25.00;97.90;;;;;;5113483;28;20426;-65
2023/07/16 02:28:53;;;;;;;;;;;25.00;97.80;;;;;;5113550;28;20008;-62
2023/07/16 02:31:19;;;;;;;;;;;25.00;97.70;;;;;;5113499;28;19989;-63
2023/07/16 02:33:44;;;;;;;;;;;25.00;98.00;;;;;;5113233;28;19985;-63
2023/07/16 02:36:10;;;;;;;;;;;25.00;98.30;;;;;;5113663;28;19988;-64
2023/07/16 02:38:35;;;;;;;;;;;25.00;97.90;;;;;;5113682;28;19985;-63
2023/07/16 02:41:01;;;;;;;;;;;24.90;97.50;;;;;;5116026;28;19996;-62
2023/07/16 02:43:26;;;;;;;;;;;25.00;97.30;;;;;;5117008;28;19989;-64
2023/07/16 02:45:52;;;;;;;;;;;24.90;97.10;;;;;;5117069;28;19988;-63
2023/07/16 02:48:18;;;;;;;;;;;24.90;97.70;;;;;;5116572;28;20516;-63
2023/07/16 02:50:43;;;;;;;;;;;24.80;97.80;;;;;;5117163;28;20458;-65
2023/07/16 02:53:09;;;;;;;;;;;24.80;98.10;;;;;;5116874;28;20392;-63
2023/07/16 02:55:34;;;;;;;;;;;24.80;98.00;;;;;;5116815;28;19985;-63
2023/07/16 02:58:04;;;;;;;;;;;24.70;97.90;;;;;;5116855;28;20004;-64
2023/07/16 03:00:33;;;;;;;;;;;24.70;97.60;;;;;;5117027;28;20083;-63
2023/07/16 03:02:59;;;;;;;;;;;24.70;98.00;;;;;;5116537;28;19989;-63
2023/07/16 03:05:25;;;;;;;;;;;24.70;98.00;;;;;;5116865;28;19988;-64
2023/07/16 03:07:51;;;;;;;;;;;24.70;98.40;;;;;;5116620;28;20363;-65
2023/07/16 03:10:16;;;;;;;;;;;24.70;98.70;;;;;;5116852;28;20019;-63
2023/07/16 03:12:42;;;;;;;;;;;24.70;98.50;;;;;;5116519;28;19985;-65
2023/07/16 03:15:08;;;;;;;;;;;24.60;98.60;;;;;;5116537;28;19995;-63
2023/07/16 03:17:33;;;;;;;;;;;24.60;98.90;;;;;;5116145;28;19985;-63
2023/07/16 03:19:59;;;;;;;;;;;24.60;98.80;;;;;;5116400;28;20031;-63
2023/07/16 03:22:24;;;;;;;;;;;24.60;98.80;;;;;;5116285;28;20451;-63
2023/07/16 03:24:50;;;;;;;;;;;24.60;98.80;;;;;;5116388;28;19985;-62
2023/07/16 03:27:15;;;;;;;;;;;24.60;98.90;;;;;;5116313;28;19985;-62
2023/07/16 03:29:41;;;;;;;;;;;24.60;99.10;;;;;;5116064;28;20398;-64
2023/07/16 03:32:07;;;;;;;;;;;24.60;99.30;;;;;;5115982;28;20007;-63
2023/07/16 03:34:32;;;;;;;;;;;24.60;99.60;;;;;;5116062;28;19984;-63
2023/07/16 03:36:58;;;;;;;;;;;24.60;99.40;;;;;;5115999;28;19989;-63
2023/07/16 03:39:23;;;;;;;;;;;24.60;99.40;;;;;;5116301;28;19995;-65
2023/07/16 03:41:49;;;;;;;;;;;24.60;99.50;;;;;;5115926;28;20120;-64
2023/07/16 03:44:14;;;;;;;;;;;24.60;99.60;;;;;;5115905;28;19984;-63
2023/07/16 03:46:40;;;;;;;;;;;24.60;99.90;;;;;;5115726;28;19984;-62
2023/07/16 03:49:08;;;;;;;;;;;24.60;99.90;;;;;;5115528;28;20060;-61
2023/07/16 03:51:34;;;;;;;;;;;24.60;99.90;;;;;;5114955;28;20493;-62
2023/07/16 03:54:02;;;;;;;;;;;24.60;99.90;;;;;;5114949;28;20221;-64
2023/07/16 03:56:27;;;;;;;;;;;24.60;99.80;;;;;;5115586;28;19988;-63
2023/07/16 03:58:53;;;;;;;;;;;24.60;99.90;;;;;;5115635;28;20027;-62
2023/07/16 04:01:18;;;;;;;;;;;24.60;99.90;;;;;;5115259;28;20049;-63
2023/07/16 04:03:44;;;;;;;;;;;24.50;99.90;;;;;;5115561;28;19992;-63
2023/07/16 04:06:10;;;;;;;;;;;24.60;99.90;;;;;;5115750;28;20484;-63
2023/07/16 04:08:36;;;;;;;;;;;24.60;99.90;;;;;;5115261;28;20387;-64
2023/07/16 04:11:02;;;;;;;;;;;24.70;99.90;;;;;;5115417;28;19989;-64
2023/07/16 04:13:28;;;;;;;;;;;24.70;99.90;;;;;;5115404;28;19989;-63
2023/07/16 04:15:55;;;;;;;;;;;24.70;99.90;;;;;;5115302;28;19988;-62
2023/07/16 04:18:30;;;;;;;;;;;24.70;99.90;;;;;;5115350;28;19985;-63
2023/07/16 04:20:55;;;;;;;;;;;24.60;99.90;;;;;;5115180;28;19984;-64
2023/07/16 04:23:22;;;;;;;;;;;24.60;99.90;;;;;;5115329;28;19995;-62
2023/07/16 04:25:50;;;;;;;;;;;24.70;99.90;;;;;;5115173;28;20338;-62
2023/07/16 04:28:16;;;;;;;;;;;24.70;99.90;;;;;;5114807;28;19984;-62
2023/07/16 04:30:41;;;;;;;;;;;24.70;99.90;;;;;;5114961;28;20034;-62
2023/07/16 04:33:07;;;;;;;;;;;24.80;99.90;;;;;;5115117;28;19991;-62
2023/07/16 04:35:33;;;;;;;;;;;24.80;99.90;;;;;;5114948;28;20316;-62
2023/07/16 04:37:59;;;;;;;;;;;24.90;99.90;;;;;;5114818;28;20080;-64
2023/07/16 04:40:24;;;;;;;;;;;24.90;99.90;;;;;;5114837;28;20021;-64
2023/07/16 04:42:50;;;;;;;;;;;24.90;99.90;;;;;;5114711;28;19984;-65
2023/07/16 04:45:15;;;;;;;;;;;25.00;99.90;;;;;;5115281;28;20003;-64
2023/07/16 04:47:41;;;;;;;;;;;25.10;99.90;;;;;;5114959;28;20071;-63
2023/07/16 04:50:06;;;;;;;;;;;25.20;99.90;;;;;;5114745;28;20012;-63
2023/07/16 04:52:32;;;;;;;;;;;25.20;99.90;;;;;;5114593;28;20024;-62
2023/07/16 04:54:58;;;;;;;;;;;25.20;99.90;;;;;;5114756;28;20016;-64
2023/07/16 04:57:23;;;;;;;;;;;25.20;99.90;;;;;;5114582;28;20478;-62
2023/07/16 04:59:49;;;;;;;;;;;25.30;99.90;;;;;;5114447;28;19988;-64
2023/07/16 05:02:16;;;;;;;;;;;25.30;99.90;;;;;;5114355;28;19989;-63
2023/07/16 05:04:43;;;;;;;;;;;25.20;99.90;;;;;;5114349;28;20033;-63
2023/07/16 05:07:09;;;;;;;;;;;25.20;99.90;;;;;;5114393;28;19992;-62
2023/07/16 05:09:35;;;;;;;;;;;25.20;99.90;;;;;;5114202;28;20008;-64
2023/07/16 05:12:00;;;;;;;;;;;25.30;99.90;;;;;;5114388;28;19989;-63
2023/07/16 05:14:27;;;;;;;;;;;25.40;99.90;;;;;;5114320;28;20006;-62
2023/07/16 05:16:52;;;;;;;;;;;25.40;99.90;;;;;;5114231;28;19985;-63
2023/07/16 05:19:18;;;;;;;;;;;25.40;99.90;;;;;;5114233;28;20450;-64
2023/07/16 05:21:43;;;;;;;;;;;25.50;99.90;;;;;;5114277;28;20360;-63
2023/07/16 05:24:09;;;;;;;;;;;25.60;99.90;;;;;;5114230;28;20084;-63
2023/07/16 05:26:34;;;;;;;;;;;25.70;99.90;;;;;;5113872;28;19984;-63
2023/07/16 05:29:00;;;;;;;;;;;25.70;99.90;;;;;;5114074;28;20008;-63
2023/07/16 05:31:25;;;;;;;;;;;25.80;99.90;;;;;;5114057;28;20353;-62
2023/07/16 05:33:51;;;;;;;;;;;25.80;99.90;;;;;;5114043;28;19984;-63
2023/07/16 05:36:17;;;;;;;;;;;25.80;99.90;;;;;;5114084;28;19985;-62
2023/07/16 05:38:42;;;;;;;;;;;25.90;99.90;;;;;;5114275;28;20464;-63
2023/07/16 05:41:08;;;;;;;;;;;26.00;99.90;;;;;;5113729;28;19989;-62
2023/07/16 05:43:33;;;;;;;;;;;26.10;99.30;;;;;;5114169;28;19991;-63
2023/07/16 05:45:59;;;;;;;;;;;26.10;99.30;;;;;;5114043;28;19985;-64
2023/07/16 05:48:24;;;;;;;;;;;26.20;98.80;;;;;;5113684;28;20027;-63
2023/07/16 05:50:50;;;;;;;;;;;26.40;98.80;;;;;;5113939;28;19989;-62
2023/07/16 05:53:16;;;;;;;;;;;26.40;98.80;;;;;;5114121;28;19985;-64
2023/07/16 05:55:41;;;;;;;;;;;26.60;98.20;;;;;;5113702;28;19985;-64
2023/07/16 05:58:07;;;;;;;;;;;26.70;98.10;;;;;;5113659;28;20004;-62
2023/07/16 06:00:33;;;;;;;;;;;26.70;98.10;;;;;;5113833;28;19992;-63
2023/07/16 06:02:58;;;;;;;;;;;26.80;97.70;;;;;;5113879;28;20351;-64
2023/07/16 06:05:27;;;;;;;;;;;27.00;97.20;;;;;;5113756;28;19984;-62
2023/07/16 06:07:52;;;;;;;;;;;27.10;97.20;;;;;;5113754;28;19984;-62
2023/07/16 06:10:18;;;;;;;;;;;27.10;96.80;;;;;;5113499;28;20019;-64
2023/07/16 06:12:43;;;;;;;;;;;27.20;97.30;;;;;;5113629;28;19994;-63
2023/07/16 06:15:09;;;;;;;;;;;27.20;96.40;;;;;;5115245;28;20043;-64
2023/07/16 06:17:34;;;;;;;;;;;27.30;97.60;;;;;;5117707;28;19984;-62
2023/07/16 06:20:00;;;;;;;;;;;27.40;96.70;;;;;;5117503;28;20450;-62
2023/07/16 06:22:26;;;;;;;;;;;27.60;96.30;;;;;;5117482;28;19996;-64
2023/07/16 06:24:51;;;;;;;;;;;27.70;96.10;;;;;;5117429;28;20006;-64
2023/07/16 06:27:17;;;;;;;;;;;27.90;96.30;;;;;;5117677;28;20316;-63
2023/07/16 06:29:42;;;;;;;;;;;28.00;96.30;;;;;;5117241;28;20379;-62
2023/07/16 06:32:08;;;;;;;;;;;28.10;96.30;;;;;;5117322;28;19989;-64
2023/07/16 06:34:34;;;;;;;;;;;28.20;95.30;;;;;;5117324;28;19984;-63
2023/07/16 06:36:59;;;;;;;;;;;28.30;93.20;;;;;;5117374;28;19989;-61
2023/07/16 06:39:25;;;;;;;;;;;28.40;93.50;;;;;;5117259;28;19992;-62
2023/07/16 06:41:50;;;;;;;;;;;28.50;93.00;;;;;;5117158;28;19985;-64
2023/07/16 06:44:16;;;;;;;;;;;28.60;92.80;;;;;;5117002;28;19984;-63
2023/07/16 06:46:42;;;;;;;;;;;28.70;92.10;;;;;;5117069;28;20080;-63
2023/07/16 06:49:07;;;;;;;;;;;28.80;94.20;;;;;;5116874;28;20059;-63
2023/07/16 06:51:33;;;;;;;;;;;28.90;92.10;;;;;;5117062;28;20104;-64
2023/07/16 06:53:59;;;;;;;;;;;29.00;90.20;;;;;;5116891;28;20350;-62
2023/07/16 06:56:25;;;;;;;;;;;29.00;88.50;;;;;;5116819;28;19984;-62
2023/07/16 06:58:50;;;;;;;;;;;29.10;89.10;;;;;;5116885;28;19989;-62
2023/07/16 07:01:16;;;;;;;;;;;29.20;88.70;;;;;;5116709;28;19984;-62
2023/07/16 07:03:41;;;;;;;;;;;29.30;92.10;;;;;;5116713;28;19984;-63
2023/07/16 07:06:07;;;;;;;;;;;29.40;89.20;;;;;;5116674;28;19988;-64
2023/07/16 07:08:32;;;;;;;;;;;29.50;88.50;;;;;;5116318;28;20099;-63
2023/07/16 07:10:58;;;;;;;;;;;29.60;87.60;;;;;;5116613;28;20455;-61
2023/07/16 07:13:24;;;;;;;;;;;29.70;86.30;;;;;;5116630;28;19985;-63
2023/07/16 07:15:49;;;;;;;;;;;29.80;87.40;;;;;;5116430;28;20063;-62
2023/07/16 07:18:15;;;;;;;;;;;29.90;87.80;;;;;;5116601;28;19985;-62
2023/07/16 07:20:41;;;;;;;;;;;30.00;91.20;;;;;;5116297;28;20354;-62
2023/07/16 07:23:07;;;;;;;;;;;30.10;84.50;;;;;;5116261;28;19989;-62
2023/07/16 07:25:32;;;;;;;;;;;30.30;85.20;;;;;;5116220;28;19989;-65
2023/07/16 07:27:58;;;;;;;;;;;30.40;85.80;;;;;;5115267;28;20355;-61
2023/07/16 07:30:24;;;;;;;;;;;30.60;79.30;;;;;;5116260;28;20034;-63
2023/07/16 07:32:49;;;;;;;;;;;30.70;78.80;;;;;;5115914;28;19992;-62
2023/07/16 07:35:15;;;;;;;;;;;30.90;78.60;;;;;;5116297;28;20014;-62
2023/07/16 07:37:40;;;;;;;;;;;31.30;75.40;;;;;;5115958;28;20027;-63
2023/07/16 07:40:07;;;;;;;;;;;33.40;72.00;;;;;;5115953;28;20481;-62
2023/07/16 07:42:33;;;;;;;;;;;36.20;66.20;;;;;;5115995;28;19985;-64
2023/07/16 07:44:58;;;;;;;;;;;38.40;57.40;;;;;;5116280;28;19993;-63
2023/07/16 07:47:24;;;;;;;;;;;40.20;55.90;;;;;;5115517;28;19984;-63
2023/07/16 07:49:50;;;;;;;;;;;41.30;51.40;;;;;;5115848;28;20008;-63
2023/07/16 07:52:16;;;;;;;;;;;42.20;49.70;;;;;;5115704;28;19992;-63
2023/07/16 07:54:42;;;;;;;;;;;43.00;48.60;;;;;;5115720;28;19985;-62
2023/07/16 07:57:07;;;;;;;;;;;43.50;47.00;;;;;;5115868;28;20000;-62
2023/07/16 07:59:33;;;;;;;;;;;44.20;45.30;;;;;;5115583;28;20362;-62
2023/07/16 08:01:58;;;;;;;;;;;44.50;45.50;;;;;;5115662;28;19985;-62
2023/07/16 08:04:24;;;;;;;;;;;45.00;45.00;;;;;;5115407;28;19994;-63
2023/07/16 08:06:51;;;;;;;;;;;44.90;44.50;;;;;;5115266;28;20024;-64
2023/07/16 08:09:16;;;;;;;;;;;44.90;42.90;;;;;;5115951;28;20013;-64
2023/07/16 08:11:42;;;;;;;;;;;45.20;41.40;;;;;;5115347;28;20445;-64
2023/07/16 08:14:07;;;;;;;;;;;45.50;39.70;;;;;;5115427;28;20054;-63
2023/07/16 08:16:33;;;;;;;;;;;45.60;40.10;;;;;;5115283;28;20042;-63
2023/07/16 08:18:58;;;;;;;;;;;45.60;39.70;;;;;;5115149;28;20076;-62
2023/07/16 08:21:24;;;;;;;;;;;45.60;41.70;;;;;;5115019;28;19992;-64
2023/07/16 08:23:49;;;;;;;;;;;45.70;40.00;;;;;;5115130;28;19992;-63
2023/07/16 08:26:15;;;;;;;;;;;46.00;39.80;;;;;;5115334;28;19988;-64
2023/07/16 08:28:41;;;;;;;;;;;46.20;39.20;;;;;;5114924;28;20009;-63
2023/07/16 08:31:06;;;;;;;;;;;46.40;38.80;;;;;;5115087;28;20443;-63
2023/07/16 08:33:32;;;;;;;;;;;46.40;39.10;;;;;;5115004;28;20439;-64
2023/07/16 08:35:58;;;;;;;;;;;46.30;38.40;;;;;;5114715;28;20046;-63
2023/07/16 08:38:23;;;;;;;;;;;46.10;38.50;;;;;;5114710;28;19995;-64
2023/07/16 08:40:49;;;;;;;;;;;46.10;40.60;;;;;;5114886;28;20381;-64
2023/07/16 08:43:16;;;;;;;;;;;46.10;39.40;;;;;;5114748;28;20446;-65
2023/07/16 08:45:44;;;;;;;;;;;46.10;36.30;;;;;;5115310;28;20035;-63
2023/07/16 08:48:10;;;;;;;;;;;46.00;35.40;;;;;;5114488;28;20024;-64
2023/07/16 08:50:37;;;;;;;;;;;45.90;35.90;;;;;;5114438;28;19988;-63
2023/07/16 08:53:06;;;;;;;;;;;45.50;35.10;;;;;;5114759;28;20439;-62
2023/07/16 08:55:31;;;;;;;;;;;45.30;36.40;;;;;;5114626;28;20035;-64
2023/07/16 08:57:57;;;;;;;;;;;45.40;37.80;;;;;;5114652;28;20005;-64
2023/07/16 09:00:25;;;;;;;;;;;45.60;36.80;;;;;;5114548;28;19991;-61
2023/07/16 09:02:55;;;;;;;;;;;45.70;36.30;;;;;;5114517;28;19985;-62
2023/07/16 09:05:21;;;;;;;;;;;45.80;36.90;;;;;;5114364;28;19988;-62
2023/07/16 09:07:46;;;;;;;;;;;45.70;38.30;;;;;;5114386;28;20042;-62
2023/07/16 09:10:12;;;;;;;;;;;45.60;39.20;;;;;;5114600;28;20008;-64
2023/07/16 09:12:45;;;;;;;;;;;45.50;39.40;;;;;;5114207;28;20363;-65
2023/07/16 09:15:11;;;;;;;;;;;45.30;39.80;;;;;;5114535;28;19989;-62
2023/07/16 09:17:38;;;;;;;;;;;45.10;38.00;;;;;;5114285;28;19988;-64
2023/07/16 09:20:04;;;;;;;;;;;45.20;40.20;;;;;;5114004;28;19984;-64
2023/07/16 09:22:29;;;;;;;;;;;44.90;37.00;;;;;;5114185;28;20069;-64
2023/07/16 09:24:56;;;;;;;;;;;44.60;38.50;;;;;;5114306;28;20075;-62
2023/07/16 09:27:27;;;;;;;;;;;44.60;40.30;;;;;;5114110;28;19992;-63
2023/07/16 09:29:53;;;;;;;;;;;44.70;39.20;;;;;;5114210;28;20008;-64
2023/07/16 09:32:19;;;;;;;;;;;44.60;37.90;;;;;;5114202;28;19995;-64
2023/07/16 09:34:45;;;;;;;;;;;44.50;40.40;;;;;;5114027;28;19989;-64
2023/07/16 09:37:10;;;;;;;;;;;44.30;40.00;;;;;;5114365;28;20324;-62
2023/07/16 09:39:37;;;;;;;;;;;44.30;41.20;;;;;;5114102;28;20474;-62
2023/07/16 09:42:02;;;;;;;;;;;44.30;41.20;;;;;;5113996;28;19997;-62
2023/07/16 09:44:29;;;;;;;;;;;44.20;40.30;;;;;;5113916;28;20015;-62
2023/07/16 09:46:54;;;;;;;;;;;44.20;40.80;;;;;;5114244;28;20359;-63
2023/07/16 09:49:20;;;;;;;;;;;44.50;37.10;;;;;;5113585;28;20021;-62
2023/07/16 09:51:47;;;;;;;;;;;44.50;36.80;;;;;;5118114;28;19984;-62
2023/07/16 09:54:14;;;;;;;;;;;44.30;37.60;;;;;;5118401;28;20087;-64
2023/07/16 09:56:45;;;;;;;;;;;44.30;38.60;;;;;;5118252;28;20035;-64
2023/07/16 09:59:15;;;;;;;;;;;44.40;38.70;;;;;;5117949;28;20355;-62
2023/07/16 10:01:41;;;;;;;;;;;44.20;38.60;;;;;;5117742;28;19996;-62
2023/07/16 10:04:11;;;;;;;;;;;44.40;38.20;;;;;;5117951;28;19985;-63
2023/07/16 10:06:36;;;;;;;;;;;44.40;35.40;;;;;;5118489;28;19992;-61
2023/07/16 10:09:02;;;;;;;;;;;44.20;39.50;;;;;;5117765;28;20008;-62
2023/07/16 10:11:28;;;;;;;;;;;43.90;36.80;;;;;;5117776;28;20001;-64
2023/07/16 10:13:53;;;;;;;;;;;43.80;37.20;;;;;;5117619;28;20038;-62
2023/07/16 10:16:21;;;;;;;;;;;43.60;37.90;;;;;;5117525;28;20497;-62
2023/07/16 10:18:55;;;;;;;;;;;43.60;38.00;;;;;;5117594;28;19989;-64
2023/07/16 10:21:25;;;;;;;;;;;43.60;38.90;;;;;;5117720;28;20030;-62
2023/07/16 10:23:56;;;;;;;;;;;43.60;36.90;;;;;;5117500;28;19988;-63
2023/07/16 10:26:26;;;;;;;;;;;43.90;34.50;;;;;;5117449;28;20427;-64
2023/07/16 10:28:51;;;;;;;;;;;44.00;37.70;;;;;;5117622;28;20019;-64
2023/07/16 10:31:20;;;;;;;;;;;43.90;36.60;;;;;;5117202;28;20467;-62
2023/07/16 10:33:55;;;;;;;;;;;43.80;35.80;;;;;;5117321;28;19985;-64
2023/07/16 10:36:21;;;;;;;;;;;43.90;38.00;;;;;;5117386;28;20037;-62
2023/07/16 10:38:46;;;;;;;;;;;44.00;37.30;;;;;;5117310;28;19985;-64
2023/07/16 10:41:12;;;;;;;;;;;43.70;37.30;;;;;;5117090;28;19985;-62
2023/07/16 10:43:38;;;;;;;;;;;43.60;38.40;;;;;;5117285;28;20031;-64
2023/07/16 10:46:03;;;;;;;;;;;43.60;38.50;;;;;;5116921;28;20032;-62
2023/07/16 10:48:29;;;;;;;;;;;43.70;38.50;;;;;;5116729;28;20020;-62
2023/07/16 10:50:55;;;;;;;;;;;43.90;38.40;;;;;;5117086;28;19995;-62
2023/07/16 10:53:20;;;;;;;;;;;44.10;36.40;;;;;;5117251;28;19989;-64
2023/07/16 10:55:46;;;;;;;;;;;44.10;35.40;;;;;;5116894;28;20075;-64
2023/07/16 10:58:11;;;;;;;;;;;44.00;36.30;;;;;;5116984;28;20027;-62
2023/07/16 11:00:38;;;;;;;;;;;43.70;35.70;;;;;;5116420;28;19997;-62
2023/07/16 11:03:04;;;;;;;;;;;43.40;36.20;;;;;;5117061;28;19988;-64
2023/07/16 11:05:29;;;;;;;;;;;43.20;34.10;;;;;;5116486;28;20431;-63
2023/07/16 11:07:55;;;;;;;;;;;43.30;36.50;;;;;;5117000;28;19989;-62
2023/07/16 11:10:21;;;;;;;;;;;43.40;36.50;;;;;;5116521;28;20462;-63
2023/07/16 11:12:51;;;;;;;;;;;43.50;37.70;;;;;;5116526;28;20079;-63
2023/07/16 11:15:17;;;;;;;;;;;43.50;35.80;;;;;;5116394;28;19989;-61
2023/07/16 11:17:42;;;;;;;;;;;43.40;34.30;;;;;;5116443;28;20079;-63
2023/07/16 11:20:09;;;;;;;;;;;43.60;32.90;;;;;;5116645;28;19992;-62
2023/07/16 11:22:37;;;;;;;;;;;43.80;34.00;;;;;;5116564;28;19992;-63
2023/07/16 11:25:02;;;;;;;;;;;44.10;35.60;;;;;;5116440;28;19992;-65
2023/07/16 11:27:30;;;;;;;;;;;44.20;34.60;;;;;;5116246;28;19989;-62
2023/07/16 11:29:57;;;;;;;;;;;44.20;35.70;;;;;;5115987;28;20009;-64
2023/07/16 11:32:26;;;;;;;;;;;44.00;32.50;;;;;;5116602;28;20354;-65
2023/07/16 11:34:52;;;;;;;;;;;44.00;34.90;;;;;;5116079;28;20362;-62
2023/07/16 11:37:18;;;;;;;;;;;44.20;33.20;;;;;;5116050;28;20347;-62
2023/07/16 11:39:44;;;;;;;;;;;44.30;35.30;;;;;;5116320;28;20038;-62
2023/07/16 11:42:09;;;;;;;;;;;44.00;34.20;;;;;;5115902;28;19988;-62
2023/07/16 11:44:35;;;;;;;;;;;44.20;34.30;;;;;;5115890;28;19985;-64
2023/07/16 11:47:01;;;;;;;;;;;44.00;32.80;;;;;;5116456;28;19992;-64
2023/07/16 11:49:27;;;;;;;;;;;43.90;33.50;;;;;;5115544;28;20436;-64
2023/07/16 11:51:52;;;;;;;;;;;43.60;33.80;;;;;;5116064;28;19992;-62
2023/07/16 11:54:18;;;;;;;;;;;43.60;33.60;;;;;;5115822;28;19988;-65
2023/07/16 11:56:43;;;;;;;;;;;43.60;34.20;;;;;;5115566;28;20009;-63
2023/07/16 11:59:09;;;;;;;;;;;43.70;33.30;;;;;;5115449;28;20126;-63
2023/07/16 12:01:34;;;;;;;;;;;44.00;32.80;;;;;;5115748;28;19985;-64
2023/07/16 12:04:00;;;;;;;;;;;44.20;31.70;;;;;;5097505;28;19988;-64
2023/07/16 12:06:25;;;;;;;;;;;44.00;34.20;;;;;;5115750;28;19995;-65
2023/07/16 12:08:51;;;;;;;;;;;43.70;33.20;;;;;;5115341;28;20109;-65
2023/07/16 12:11:17;;;;;;;;;;;43.60;37.20;;;;;;5115404;28;19992;-62
2023/07/16 12:13:42;;;;;;;;;;;43.60;35.50;;;;;;5114352;28;19989;-62
2023/07/16 12:16:08;;;;;;;;;;;43.40;30.90;;;;;;5115331;28;19996;-62
2023/07/16 12:18:33;;;;;;;;;;;43.50;35.10;;;;;;5115458;28;19985;-63
2023/07/16 12:20:59;;;;;;;;;;;43.50;34.80;;;;;;5115331;28;19985;-64
2023/07/16 12:23:24;;;;;;;;;;;43.50;35.20;;;;;;5115214;28;20033;-63
2023/07/16 12:25:50;;;;;;;;;;;43.50;35.80;;;;;;5115275;28;20467;-63
2023/07/16 12:28:15;;;;;;;;;;;43.50;32.80;;;;;;5115156;28;19989;-65
2023/07/16 12:30:41;;;;;;;;;;;43.50;35.00;;;;;;5114845;28;20012;-65
2023/07/16 12:33:07;;;;;;;;;;;43.30;34.40;;;;;;5115164;28;19992;-62
2023/07/16 12:35:32;;;;;;;;;;;43.30;34.20;;;;;;5114930;28;20029;-65
2023/07/16 12:37:58;;;;;;;;;;;43.50;33.70;;;;;;5114913;28;20343;-65
2023/07/16 12:40:28;;;;;;;;;;;43.60;35.80;;;;;;5114970;28;20351;-62
2023/07/16 12:42:53;;;;;;;;;;;43.30;32.70;;;;;;5114635;28;19989;-64
2023/07/16 12:45:19;;;;;;;;;;;43.30;33.10;;;;;;5114600;28;19991;-62
2023/07/16 12:47:44;;;;;;;;;;;43.00;33.20;;;;;;5114572;28;20024;-63
2023/07/16 12:50:10;;;;;;;;;;;43.20;34.40;;;;;;5096443;28;20048;-64
2023/07/16 12:52:36;;;;;;;;;;;43.50;33.10;;;;;;5114890;28;20033;-65
2023/07/16 12:55:02;;;;;;;;;;;43.50;32.90;;;;;;5114789;28;19989;-63
2023/07/16 12:57:27;;;;;;;;;;;43.50;31.70;;;;;;5114460;28;20007;-64
2023/07/16 12:59:53;;;;;;;;;;;43.50;32.30;;;;;;5114528;28;20034;-65
2023/07/16 13:02:18;;;;;;;;;;;42.60;31.00;;;;;;5114464;28;19991;-66
2023/07/16 13:04:45;;;;;;;;;;;42.60;33.00;;;;;;5114541;28;20023;-63
2023/07/16 13:07:10;;;;;;;;;;;42.80;33.70;;;;;;5114738;28;19986;-65
2023/07/16 13:09:36;;;;;;;;;;;43.00;33.00;;;;;;5114282;28;20008;-64
2023/07/16 13:12:01;;;;;;;;;;;43.30;36.50;;;;;;5114200;28;20439;-65
2023/07/16 13:14:27;;;;;;;;;;;43.40;35.90;;;;;;5114322;28;20404;-65
2023/07/16 13:16:52;;;;;;;;;;;43.50;33.50;;;;;;5114215;28;19985;-65
2023/07/16 13:19:18;;;;;;;;;;;43.50;35.00;;;;;;5114260;28;20355;-63
2023/07/16 13:21:43;;;;;;;;;;;43.40;32.20;;;;;;5114300;28;20024;-65
2023/07/16 13:24:10;;;;;;;;;;;43.30;31.90;;;;;;5114114;28;20063;-65
2023/07/16 13:26:36;;;;;;;;;;;43.40;33.00;;;;;;5114005;28;19992;-63
2023/07/16 13:29:01;;;;;;;;;;;43.70;33.90;;;;;;5114088;28;20008;-66
2023/07/16 13:31:27;;;;;;;;;;;43.70;35.50;;;;;;5113727;28;19988;-63
2023/07/16 13:33:52;;;;;;;;;;;43.80;35.00;;;;;;5114053;28;19985;-64
2023/07/16 13:36:18;;;;;;;;;;;43.60;33.60;;;;;;5114111;28;20020;-62
2023/07/16 13:38:43;;;;;;;;;;;43.70;32.70;;;;;;5113913;28;19988;-60
2023/07/16 13:41:10;;;;;;;;;;;43.80;33.10;;;;;;5113727;28;20041;-62
2023/07/16 13:43:35;;;;;;;;;;;44.00;30.70;;;;;;5114341;28;19984;-62
2023/07/16 13:46:01;;;;;;;;;;;44.00;31.70;;;;;;5114260;28;19996;-63
2023/07/16 13:48:26;;;;;;;;;;;44.00;32.40;;;;;;5113657;28;20024;-63
2023/07/16 13:50:52;;;;;;;;;;;44.00;32.90;;;;;;5113927;28;20004;-62
2023/07/16 13:53:17;;;;;;;;;;;44.00;30.40;;;;;;5114058;28;20037;-63
2023/07/16 13:55:44;;;;;;;;;;;44.20;35.00;;;;;;5113778;28;20118;-63
2023/07/16 13:58:09;;;;;;;;;;;44.30;33.40;;;;;;5114101;28;20016;-64
2023/07/16 14:00:35;;;;;;;;;;;44.10;32.30;;;;;;5113841;28;19985;-62
2023/07/16 14:03:00;;;;;;;;;;;44.00;33.60;;;;;;5114140;28;20080;-64
2023/07/16 14:05:26;;;;;;;;;;;44.00;33.00;;;;;;5113673;28;19992;-61
2023/07/16 14:07:53;;;;;;;;;;;43.80;31.50;;;;;;5114105;28;20038;-62
2023/07/16 14:10:19;;;;;;;;;;;43.80;34.10;;;;;;5113807;28;20019;-61